Algodones, New Mexico
Current Conditions -  °F | °C
As of 1:52 AM on Monday 22 Dec 2014 (Local Time) from KABQ Reporting Station
Broken Clouds Broken Clouds  
Wind Chill: 29°   Ceiling: 24000
Heat Index: 35°   Visibility: 10mi
Dew Point: 28°   Wind: 7mph
Humidity: 76%   Direction: 130°SE
Pressure: 29.92"   Gusts: NA
Location:  35.38°N, 106.48°W
Report Text: KABQ 220852Z 13006KT 10SM BKN240 02/M02 A2992 RMK AO2 SLP116 T00171022 58001
Loading
Personal Weather Stations






























Interactive Weather Map New forecast layout! Learn more

10-Day Weather Forecast

Advertisements
Track Severe Weather on mobile